sensor_id;sensor_type;location;lat;lon;timestamp;temperature;humidity
43607;DHT22;29197;44.788;10.366;2023-03-20T00:00:31;14.50;99.90
43607;DHT22;29197;44.788;10.366;2023-03-20T00:03:22;14.60;99.90
43607;DHT22;29197;44.788;10.366;2023-03-20T00:06:14;14.80;99.90
43607;DHT22;29197;44.788;10.366;2023-03-20T00:09:03;14.80;99.90
43607;DHT22;29197;44.788;10.366;2023-03-20T00:11:54;14.60;99.90
43607;DHT22;29197;44.788;10.366;2023-03-20T00:14:42;14.50;99.90
43607;DHT22;29197;44.788;10.366;2023-03-20T00:17:31;14.50;99.90
43607;DHT22;29197;44.788;10.366;2023-03-20T00:20:21;14.50;99.90
43607;DHT22;29197;44.788;10.366;2023-03-20T00:23:10;14.50;99.90
43607;DHT22;29197;44.788;10.366;2023-03-20T00:25:58;14.50;99.90
43607;DHT22;29197;44.788;10.366;2023-03-20T00:28:48;14.50;99.90
43607;DHT22;29197;44.788;10.366;2023-03-20T00:31:37;14.50;99.90
43607;DHT22;29197;44.788;10.366;2023-03-20T00:34:28;14.50;99.90
43607;DHT22;29197;44.788;10.366;2023-03-20T00:37:18;14.50;99.90
43607;DHT22;29197;44.788;10.366;2023-03-20T00:40:08;14.50;99.90
43607;DHT22;29197;44.788;10.366;2023-03-20T00:42:59;14.60;99.90
43607;DHT22;29197;44.788;10.366;2023-03-20T00:45:48;14.60;99.90
43607;DHT22;29197;44.788;10.366;2023-03-20T00:48:37;14.60;99.90
43607;DHT22;29197;44.788;10.366;2023-03-20T00:51:26;14.60;99.90
43607;DHT22;29197;44.788;10.366;2023-03-20T00:54:17;14.50;99.90
43607;DHT22;29197;44.788;10.366;2023-03-20T00:57:08;14.60;99.90
43607;DHT22;29197;44.788;10.366;2023-03-20T01:00:00;14.60;99.90
43607;DHT22;29197;44.788;10.366;2023-03-20T01:02:53;14.50;99.90
43607;DHT22;29197;44.788;10.366;2023-03-20T01:05:42;14.50;99.90
43607;DHT22;29197;44.788;10.366;2023-03-20T01:08:30;14.50;99.90
43607;DHT22;29197;44.788;10.366;2023-03-20T01:11:22;14.50;99.90
43607;DHT22;29197;44.788;10.366;2023-03-20T01:14:13;14.50;99.90
43607;DHT22;29197;44.788;10.366;2023-03-20T01:17:02;14.50;99.90
43607;DHT22;29197;44.788;10.366;2023-03-20T01:19:51;14.50;99.90
43607;DHT22;29197;44.788;10.366;2023-03-20T01:22:39;14.50;99.90
43607;DHT22;29197;44.788;10.366;2023-03-20T01:25:28;14.50;99.90
43607;DHT22;29197;44.788;10.366;2023-03-20T01:28:20;14.50;99.90
43607;DHT22;29197;44.788;10.366;2023-03-20T01:31:09;14.50;99.90
43607;DHT22;29197;44.788;10.366;2023-03-20T01:33:57;14.40;99.90
43607;DHT22;29197;44.788;10.366;2023-03-20T01:36:49;14.40;99.90
43607;DHT22;29197;44.788;10.366;2023-03-20T01:39:38;14.40;99.90
43607;DHT22;29197;44.788;10.366;2023-03-20T01:42:26;14.40;99.90
43607;DHT22;29197;44.788;10.366;2023-03-20T01:45:20;14.30;99.90
43607;DHT22;29197;44.788;10.366;2023-03-20T01:48:14;14.30;99.90
43607;DHT22;29197;44.788;10.366;2023-03-20T01:51:04;14.30;99.90
43607;DHT22;29197;44.788;10.366;2023-03-20T01:53:55;14.30;99.90
43607;DHT22;29197;44.788;10.366;2023-03-20T01:56:47;14.30;99.90
43607;DHT22;29197;44.788;10.366;2023-03-20T01:59:40;14.30;99.90
43607;DHT22;29197;44.788;10.366;2023-03-20T02:02:31;14.30;99.90
43607;DHT22;29197;44.788;10.366;2023-03-20T02:05:21;14.30;99.90
43607;DHT22;29197;44.788;10.366;2023-03-20T02:08:20;14.40;99.90
43607;DHT22;29197;44.788;10.366;2023-03-20T02:11:10;14.40;99.90
43607;DHT22;29197;44.788;10.366;2023-03-20T02:14:00;14.30;99.90
43607;DHT22;29197;44.788;10.366;2023-03-20T02:16:49;14.30;99.90
43607;DHT22;29197;44.788;10.366;2023-03-20T02:19:49;14.30;99.90
43607;DHT22;29197;44.788;10.366;2023-03-20T02:26:30;14.30;99.90
43607;DHT22;29197;44.788;10.366;2023-03-20T02:29:52;14.30;99.90
43607;DHT22;29197;44.788;10.366;2023-03-20T02:33:37;14.30;99.90
43607;DHT22;29197;44.788;10.366;2023-03-20T02:39:59;14.30;99.90
43607;DHT22;29197;44.788;10.366;2023-03-20T02:42:56;14.30;99.90
43607;DHT22;29197;44.788;10.366;2023-03-20T02:45:50;14.30;99.90
43607;DHT22;29197;44.788;10.366;2023-03-20T02:48:46;14.30;99.90
43607;DHT22;29197;44.788;10.366;2023-03-20T02:51:39;14.30;99.90
43607;DHT22;29197;44.788;10.366;2023-03-20T02:54:33;14.30;99.90
43607;DHT22;29197;44.788;10.366;2023-03-20T02:57:35;14.30;99.90
43607;DHT22;29197;44.788;10.366;2023-03-20T03:00:29;14.30;99.90
43607;DHT22;29197;44.788;10.366;2023-03-20T03:03:25;14.30;99.90
43607;DHT22;29197;44.788;10.366;2023-03-20T03:06:19;14.30;99.90
43607;DHT22;29197;44.788;10.366;2023-03-20T03:09:12;14.30;99.90
43607;DHT22;29197;44.788;10.366;2023-03-20T03:12:09;14.20;99.90
43607;DHT22;29197;44.788;10.366;2023-03-20T03:15:03;14.20;99.90
43607;DHT22;29197;44.788;10.366;2023-03-20T03:17:54;14.30;99.90
43607;DHT22;29197;44.788;10.366;2023-03-20T03:20:46;14.20;99.90
43607;DHT22;29197;44.788;10.366;2023-03-20T03:23:41;14.20;99.90
43607;DHT22;29197;44.788;10.366;2023-03-20T03:26:33;14.20;99.90
43607;DHT22;29197;44.788;10.366;2023-03-20T03:29:26;14.20;99.90
43607;DHT22;29197;44.788;10.366;2023-03-20T03:32:24;14.20;99.90
43607;DHT22;29197;44.788;10.366;2023-03-20T03:35:15;14.10;99.90
43607;DHT22;29197;44.788;10.366;2023-03-20T03:38:17;14.00;99.90
43607;DHT22;29197;44.788;10.366;2023-03-20T03:41:18;14.10;99.90
43607;DHT22;29197;44.788;10.366;2023-03-20T03:44:11;14.10;99.90
43607;DHT22;29197;44.788;10.366;2023-03-20T03:47:03;14.10;99.90
43607;DHT22;29197;44.788;10.366;2023-03-20T03:50:00;14.20;99.90
43607;DHT22;29197;44.788;10.366;2023-03-20T03:52:50;14.20;99.90
43607;DHT22;29197;44.788;10.366;2023-03-20T03:55:41;14.20;99.90
43607;DHT22;29197;44.788;10.366;2023-03-20T03:58:33;14.20;99.90
43607;DHT22;29197;44.788;10.366;2023-03-20T04:01:23;14.20;99.90
43607;DHT22;29197;44.788;10.366;2023-03-20T04:04:14;14.30;99.90
43607;DHT22;29197;44.788;10.366;2023-03-20T04:07:07;14.30;99.90
43607;DHT22;29197;44.788;10.366;2023-03-20T04:09:56;14.30;99.90
43607;DHT22;29197;44.788;10.366;2023-03-20T04:12:45;14.30;99.90
43607;DHT22;29197;44.788;10.366;2023-03-20T04:15:33;14.30;99.90
43607;DHT22;29197;44.788;10.366;2023-03-20T04:18:22;14.30;99.90
43607;DHT22;29197;44.788;10.366;2023-03-20T04:21:11;14.30;99.90
43607;DHT22;29197;44.788;10.366;2023-03-20T04:24:01;14.30;99.90
43607;DHT22;29197;44.788;10.366;2023-03-20T04:26:49;14.20;99.90
43607;DHT22;29197;44.788;10.366;2023-03-20T04:29:38;14.20;99.90
43607;DHT22;29197;44.788;10.366;2023-03-20T04:32:27;14.20;99.90
43607;DHT22;29197;44.788;10.366;2023-03-20T04:35:15;14.20;99.90
43607;DHT22;29197;44.788;10.366;2023-03-20T04:38:04;14.20;99.90
43607;DHT22;29197;44.788;10.366;2023-03-20T04:40:54;14.20;99.90
43607;DHT22;29197;44.788;10.366;2023-03-20T04:43:43;14.30;99.90
43607;DHT22;29197;44.788;10.366;2023-03-20T04:46:31;14.30;99.90
43607;DHT22;29197;44.788;10.366;2023-03-20T04:49:20;14.30;99.90
43607;DHT22;29197;44.788;10.366;2023-03-20T04:52:08;14.30;99.90
43607;DHT22;29197;44.788;10.366;2023-03-20T04:54:57;14.30;99.90
43607;DHT22;29197;44.788;10.366;2023-03-20T04:57:47;14.30;99.90
43607;DHT22;29197;44.788;10.366;2023-03-20T05:00:35;14.30;99.90
43607;DHT22;29197;44.788;10.366;2023-03-20T05:03:24;14.30;99.90
43607;DHT22;29197;44.788;10.366;2023-03-20T05:06:13;14.30;99.90
43607;DHT22;29197;44.788;10.366;2023-03-20T05:09:02;14.30;99.90
43607;DHT22;29197;44.788;10.366;2023-03-20T05:11:50;14.30;99.90
43607;DHT22;29197;44.788;10.366;2023-03-20T05:14:40;14.30;99.90
43607;DHT22;29197;44.788;10.366;2023-03-20T05:17:29;14.30;99.90
43607;DHT22;29197;44.788;10.366;2023-03-20T05:20:17;14.30;99.90
43607;DHT22;29197;44.788;10.366;2023-03-20T05:23:06;14.30;99.90
43607;DHT22;29197;44.788;10.366;2023-03-20T05:25:54;14.30;99.90
43607;DHT22;29197;44.788;10.366;2023-03-20T05:28:43;14.30;99.90
43607;DHT22;29197;44.788;10.366;2023-03-20T05:31:32;14.30;99.90
43607;DHT22;29197;44.788;10.366;2023-03-20T05:34:21;14.30;99.90
43607;DHT22;29197;44.788;10.366;2023-03-20T05:37:10;14.30;99.90
43607;DHT22;29197;44.788;10.366;2023-03-20T05:39:58;14.30;99.90
43607;DHT22;29197;44.788;10.366;2023-03-20T05:42:46;14.30;99.90
43607;DHT22;29197;44.788;10.366;2023-03-20T05:45:35;14.30;99.90
43607;DHT22;29197;44.788;10.366;2023-03-20T05:48:25;14.30;99.90
43607;DHT22;29197;44.788;10.366;2023-03-20T05:51:13;14.30;99.90
43607;DHT22;29197;44.788;10.366;2023-03-20T05:54:02;14.20;99.90
43607;DHT22;29197;44.788;10.366;2023-03-20T05:56:51;14.20;99.90
43607;DHT22;29197;44.788;10.366;2023-03-20T05:59:40;14.20;99.90
43607;DHT22;29197;44.788;10.366;2023-03-20T06:02:28;14.20;99.90
43607;DHT22;29197;44.788;10.366;2023-03-20T06:05:18;14.20;99.90
43607;DHT22;29197;44.788;10.366;2023-03-20T06:08:07;14.20;99.90
43607;DHT22;29197;44.788;10.366;2023-03-20T06:10:55;14.20;99.90
43607;DHT22;29197;44.788;10.366;2023-03-20T06:13:44;14.20;99.90
43607;DHT22;29197;44.788;10.366;2023-03-20T06:16:32;14.20;99.90
43607;DHT22;29197;44.788;10.366;2023-03-20T06:19:21;14.20;99.90
43607;DHT22;29197;44.788;10.366;2023-03-20T06:22:10;14.20;99.90
43607;DHT22;29197;44.788;10.366;2023-03-20T06:24:59;14.20;99.90
43607;DHT22;29197;44.788;10.366;2023-03-20T06:27:48;14.30;99.90
43607;DHT22;29197;44.788;10.366;2023-03-20T06:30:36;14.30;99.90
43607;DHT22;29197;44.788;10.366;2023-03-20T06:33:25;14.30;99.90
43607;DHT22;29197;44.788;10.366;2023-03-20T06:36:13;14.30;99.90
43607;DHT22;29197;44.788;10.366;2023-03-20T06:39:03;14.40;99.90
43607;DHT22;29197;44.788;10.366;2023-03-20T06:41:52;14.40;99.90
43607;DHT22;29197;44.788;10.366;2023-03-20T06:44:41;14.40;99.90
43607;DHT22;29197;44.788;10.366;2023-03-20T06:47:29;14.40;99.90
43607;DHT22;29197;44.788;10.366;2023-03-20T06:50:18;14.40;99.90
43607;DHT22;29197;44.788;10.366;2023-03-20T06:53:06;14.40;99.90
43607;DHT22;29197;44.788;10.366;2023-03-20T06:55:56;14.40;99.90
43607;DHT22;29197;44.788;10.366;2023-03-20T06:58:45;14.40;99.90
43607;DHT22;29197;44.788;10.366;2023-03-20T07:01:33;14.40;99.90
43607;DHT22;29197;44.788;10.366;2023-03-20T07:04:23;14.30;99.90
43607;DHT22;29197;44.788;10.366;2023-03-20T07:07:12;14.30;99.90
43607;DHT22;29197;44.788;10.366;2023-03-20T07:10:02;14.30;99.90
43607;DHT22;29197;44.788;10.366;2023-03-20T07:12:52;14.30;99.90
43607;DHT22;29197;44.788;10.366;2023-03-20T07:15:41;14.40;99.90
43607;DHT22;29197;44.788;10.366;2023-03-20T07:18:49;14.40;99.90
43607;DHT22;29197;44.788;10.366;2023-03-20T07:21:37;14.40;99.90
43607;DHT22;29197;44.788;10.366;2023-03-20T07:24:26;14.40;99.90
43607;DHT22;29197;44.788;10.366;2023-03-20T07:27:14;14.40;99.90
43607;DHT22;29197;44.788;10.366;2023-03-20T07:30:06;14.40;99.90
43607;DHT22;29197;44.788;10.366;2023-03-20T07:32:55;14.50;99.90
43607;DHT22;29197;44.788;10.366;2023-03-20T07:35:44;14.50;99.90
43607;DHT22;29197;44.788;10.366;2023-03-20T07:38:33;14.50;99.90
43607;DHT22;29197;44.788;10.366;2023-03-20T07:41:21;14.50;99.90
43607;DHT22;29197;44.788;10.366;2023-03-20T07:44:10;14.60;99.90
43607;DHT22;29197;44.788;10.366;2023-03-20T07:47:01;14.50;99.90
43607;DHT22;29197;44.788;10.366;2023-03-20T07:49:52;14.50;99.90
43607;DHT22;29197;44.788;10.366;2023-03-20T07:52:43;14.40;99.90
43607;DHT22;29197;44.788;10.366;2023-03-20T07:55:32;14.40;99.90
43607;DHT22;29197;44.788;10.366;2023-03-20T07:58:21;14.40;99.90
43607;DHT22;29197;44.788;10.366;2023-03-20T08:01:09;14.40;99.90
43607;DHT22;29197;44.788;10.366;2023-03-20T08:03:59;14.40;99.90
43607;DHT22;29197;44.788;10.366;2023-03-20T08:06:48;14.40;99.90
43607;DHT22;29197;44.788;10.366;2023-03-20T08:09:38;14.40;99.90
43607;DHT22;29197;44.788;10.366;2023-03-20T08:12:26;14.40;99.90
43607;DHT22;29197;44.788;10.366;2023-03-20T08:15:15;14.40;99.90
43607;DHT22;29197;44.788;10.366;2023-03-20T08:18:04;14.40;99.90
43607;DHT22;29197;44.788;10.366;2023-03-20T08:20:54;14.40;99.90
43607;DHT22;29197;44.788;10.366;2023-03-20T08:23:42;14.40;99.90
43607;DHT22;29197;44.788;10.366;2023-03-20T08:26:31;14.50;99.90
43607;DHT22;29197;44.788;10.366;2023-03-20T08:29:19;14.60;99.90
43607;DHT22;29197;44.788;10.366;2023-03-20T08:32:08;14.60;99.90
43607;DHT22;29197;44.788;10.366;2023-03-20T08:34:56;14.60;99.90
43607;DHT22;29197;44.788;10.366;2023-03-20T08:37:46;14.70;99.90
43607;DHT22;29197;44.788;10.366;2023-03-20T08:40:35;14.90;99.90
43607;DHT22;29197;44.788;10.366;2023-03-20T08:43:23;15.00;99.90
43607;DHT22;29197;44.788;10.366;2023-03-20T08:46:12;15.00;99.90
43607;DHT22;29197;44.788;10.366;2023-03-20T08:49:00;15.10;99.90
43607;DHT22;29197;44.788;10.366;2023-03-20T08:51:49;15.20;99.90
43607;DHT22;29197;44.788;10.366;2023-03-20T08:54:39;15.30;99.90
43607;DHT22;29197;44.788;10.366;2023-03-20T08:57:27;15.40;99.90
43607;DHT22;29197;44.788;10.366;2023-03-20T09:00:17;15.40;99.90
43607;DHT22;29197;44.788;10.366;2023-03-20T09:03:06;15.40;99.90
43607;DHT22;29197;44.788;10.366;2023-03-20T09:05:55;15.50;99.90
43607;DHT22;29197;44.788;10.366;2023-03-20T09:08:43;15.60;99.90
43607;DHT22;29197;44.788;10.366;2023-03-20T09:11:33;15.70;99.90
43607;DHT22;29197;44.788;10.366;2023-03-20T09:14:22;15.80;99.90
43607;DHT22;29197;44.788;10.366;2023-03-20T09:17:11;15.90;99.90
43607;DHT22;29197;44.788;10.366;2023-03-20T09:19:59;15.90;99.90
43607;DHT22;29197;44.788;10.366;2023-03-20T09:22:48;15.90;99.90
43607;DHT22;29197;44.788;10.366;2023-03-20T09:25:36;15.90;99.90
43607;DHT22;29197;44.788;10.366;2023-03-20T09:28:26;15.90;99.90
43607;DHT22;29197;44.788;10.366;2023-03-20T09:31:15;15.90;99.90
43607;DHT22;29197;44.788;10.366;2023-03-20T09:34:03;15.90;99.90
43607;DHT22;29197;44.788;10.366;2023-03-20T09:36:52;15.90;99.90
43607;DHT22;29197;44.788;10.366;2023-03-20T09:39:41;15.90;99.90
43607;DHT22;29197;44.788;10.366;2023-03-20T09:42:37;15.90;99.90
43607;DHT22;29197;44.788;10.366;2023-03-20T09:45:41;15.90;99.90
43607;DHT22;29197;44.788;10.366;2023-03-20T09:48:34;15.90;99.90
43607;DHT22;29197;44.788;10.366;2023-03-20T09:51:31;15.90;99.90
43607;DHT22;29197;44.788;10.366;2023-03-20T09:54:25;15.90;99.90
43607;DHT22;29197;44.788;10.366;2023-03-20T09:57:18;15.90;99.90
43607;DHT22;29197;44.788;10.366;2023-03-20T10:00:12;15.60;99.90
43607;DHT22;29197;44.788;10.366;2023-03-20T10:03:05;16.00;99.90
43607;DHT22;29197;44.788;10.366;2023-03-20T10:05:58;16.00;99.90
43607;DHT22;29197;44.788;10.366;2023-03-20T10:08:47;16.10;99.90
43607;DHT22;29197;44.788;10.366;2023-03-20T10:12:07;16.10;99.90
43607;DHT22;29197;44.788;10.366;2023-03-20T10:15:02;16.10;99.90
43607;DHT22;29197;44.788;10.366;2023-03-20T10:17:57;16.10;99.90
43607;DHT22;29197;44.788;10.366;2023-03-20T10:20:54;16.10;99.90
43607;DHT22;29197;44.788;10.366;2023-03-20T10:23:52;16.10;99.90
43607;DHT22;29197;44.788;10.366;2023-03-20T10:26:42;16.00;99.90
43607;DHT22;29197;44.788;10.366;2023-03-20T10:29:38;16.00;99.90
43607;DHT22;29197;44.788;10.366;2023-03-20T10:32:35;16.00;99.90
43607;DHT22;29197;44.788;10.366;2023-03-20T10:35:30;16.10;99.90
43607;DHT22;29197;44.788;10.366;2023-03-20T10:38:31;16.10;99.90
43607;DHT22;29197;44.788;10.366;2023-03-20T10:41:27;16.10;99.90
43607;DHT22;29197;44.788;10.366;2023-03-20T10:44:24;16.10;99.90
43607;DHT22;29197;44.788;10.366;2023-03-20T10:47:18;16.10;99.90
43607;DHT22;29197;44.788;10.366;2023-03-20T10:50:13;16.30;99.90
43607;DHT22;29197;44.788;10.366;2023-03-20T10:53:05;16.50;99.90
43607;DHT22;29197;44.788;10.366;2023-03-20T10:55:59;16.80;99.90
43607;DHT22;29197;44.788;10.366;2023-03-20T10:58:54;17.00;99.90
43607;DHT22;29197;44.788;10.366;2023-03-20T11:01:44;17.30;99.90
43607;DHT22;29197;44.788;10.366;2023-03-20T11:04:32;17.70;99.90
43607;DHT22;29197;44.788;10.366;2023-03-20T11:07:24;18.00;99.90
43607;DHT22;29197;44.788;10.366;2023-03-20T11:10:14;18.00;99.90
43607;DHT22;29197;44.788;10.366;2023-03-20T11:13:14;17.80;99.90
43607;DHT22;29197;44.788;10.366;2023-03-20T11:16:24;17.80;99.90
43607;DHT22;29197;44.788;10.366;2023-03-20T11:19:12;17.50;99.90
43607;DHT22;29197;44.788;10.366;2023-03-20T11:22:07;17.30;99.90
43607;DHT22;29197;44.788;10.366;2023-03-20T11:24:56;17.20;99.90
43607;DHT22;29197;44.788;10.366;2023-03-20T11:27:47;17.00;99.90
43607;DHT22;29197;44.788;10.366;2023-03-20T11:30:40;17.00;99.90
43607;DHT22;29197;44.788;10.366;2023-03-20T11:34:00;16.80;99.90
43607;DHT22;29197;44.788;10.366;2023-03-20T11:36:57;16.90;99.90
43607;DHT22;29197;44.788;10.366;2023-03-20T11:39:58;16.70;99.90
43607;DHT22;29197;44.788;10.366;2023-03-20T11:42:56;16.80;99.90
43607;DHT22;29197;44.788;10.366;2023-03-20T11:45:48;16.70;99.90
43607;DHT22;29197;44.788;10.366;2023-03-20T11:48:38;16.70;99.90
43607;DHT22;29197;44.788;10.366;2023-03-20T11:51:27;17.20;99.90
43607;DHT22;29197;44.788;10.366;2023-03-20T11:54:18;17.80;99.90
43607;DHT22;29197;44.788;10.366;2023-03-20T11:57:31;18.00;99.90
43607;DHT22;29197;44.788;10.366;2023-03-20T12:00:23;18.00;99.90
43607;DHT22;29197;44.788;10.366;2023-03-20T12:03:36;18.00;99.90
43607;DHT22;29197;44.788;10.366;2023-03-20T12:06:40;18.10;99.90
43607;DHT22;29197;44.788;10.366;2023-03-20T12:12:35;18.60;99.90
43607;DHT22;29197;44.788;10.366;2023-03-20T12:15:29;19.00;99.90
43607;DHT22;29197;44.788;10.366;2023-03-20T12:18:24;19.50;99.90
43607;DHT22;29197;44.788;10.366;2023-03-20T12:21:19;19.90;99.90
43607;DHT22;29197;44.788;10.366;2023-03-20T12:24:14;20.00;99.90
43607;DHT22;29197;44.788;10.366;2023-03-20T12:27:21;19.90;99.90
43607;DHT22;29197;44.788;10.366;2023-03-20T12:30:17;20.20;99.90
43607;DHT22;29197;44.788;10.366;2023-03-20T12:33:13;20.20;99.90
43607;DHT22;29197;44.788;10.366;2023-03-20T12:38:57;20.00;99.90
43607;DHT22;29197;44.788;10.366;2023-03-20T12:41:55;19.60;99.90
43607;DHT22;29197;44.788;10.366;2023-03-20T12:44:47;19.80;99.90
43607;DHT22;29197;44.788;10.366;2023-03-20T12:47:49;20.70;99.90
43607;DHT22;29197;44.788;10.366;2023-03-20T12:50:42;19.90;99.90
43607;DHT22;29197;44.788;10.366;2023-03-20T12:53:52;20.20;99.90
43607;DHT22;29197;44.788;10.366;2023-03-20T12:56:57;20.20;99.90
43607;DHT22;29197;44.788;10.366;2023-03-20T13:00:11;20.00;99.90
43607;DHT22;29197;44.788;10.366;2023-03-20T13:03:18;19.80;99.90
43607;DHT22;29197;44.788;10.366;2023-03-20T13:06:14;19.60;99.90
43607;DHT22;29197;44.788;10.366;2023-03-20T13:12:45;19.30;99.90
43607;DHT22;29197;44.788;10.366;2023-03-20T13:15:50;19.10;99.90
43607;DHT22;29197;44.788;10.366;2023-03-20T13:18:53;19.00;99.90
43607;DHT22;29197;44.788;10.366;2023-03-20T13:21:51;18.80;99.90
43607;DHT22;29197;44.788;10.366;2023-03-20T13:24:45;18.70;99.90
43607;DHT22;29197;44.788;10.366;2023-03-20T13:27:39;18.60;99.90
43607;DHT22;29197;44.788;10.366;2023-03-20T13:30:33;18.50;99.90
43607;DHT22;29197;44.788;10.366;2023-03-20T13:33:33;18.40;99.90
43607;DHT22;29197;44.788;10.366;2023-03-20T13:36:38;18.40;99.90
43607;DHT22;29197;44.788;10.366;2023-03-20T13:39:31;18.70;99.90
43607;DHT22;29197;44.788;10.366;2023-03-20T13:42:24;18.90;99.90
43607;DHT22;29197;44.788;10.366;2023-03-20T13:45:32;18.80;99.90
43607;DHT22;29197;44.788;10.366;2023-03-20T13:48:28;18.70;99.90
43607;DHT22;29197;44.788;10.366;2023-03-20T13:51:23;18.60;99.90
43607;DHT22;29197;44.788;10.366;2023-03-20T13:54:24;18.50;99.90
43607;DHT22;29197;44.788;10.366;2023-03-20T13:57:27;18.40;99.90
43607;DHT22;29197;44.788;10.366;2023-03-20T14:00:26;18.40;99.90
43607;DHT22;29197;44.788;10.366;2023-03-20T14:03:24;18.40;99.90
43607;DHT22;29197;44.788;10.366;2023-03-20T14:09:25;19.10;99.90
43607;DHT22;29197;44.788;10.366;2023-03-20T14:12:15;19.40;99.90
43607;DHT22;29197;44.788;10.366;2023-03-20T14:15:11;19.50;99.90
43607;DHT22;29197;44.788;10.366;2023-03-20T14:18:03;19.80;99.90
43607;DHT22;29197;44.788;10.366;2023-03-20T14:20:55;20.00;99.90
43607;DHT22;29197;44.788;10.366;2023-03-20T14:23:47;20.20;99.90
43607;DHT22;29197;44.788;10.366;2023-03-20T14:26:38;20.20;99.90
43607;DHT22;29197;44.788;10.366;2023-03-20T14:29:34;20.20;99.90
43607;DHT22;29197;44.788;10.366;2023-03-20T14:32:34;20.30;99.90
43607;DHT22;29197;44.788;10.366;2023-03-20T14:35:25;20.20;99.90
43607;DHT22;29197;44.788;10.366;2023-03-20T14:38:20;20.00;99.90
43607;DHT22;29197;44.788;10.366;2023-03-20T14:44:21;19.60;99.90
43607;DHT22;29197;44.788;10.366;2023-03-20T14:47:21;19.50;99.90
43607;DHT22;29197;44.788;10.366;2023-03-20T14:50:17;19.50;99.90
43607;DHT22;29197;44.788;10.366;2023-03-20T14:53:15;19.70;99.90
43607;DHT22;29197;44.788;10.366;2023-03-20T14:56:08;19.80;99.90
43607;DHT22;29197;44.788;10.366;2023-03-20T14:59:00;20.00;99.90
43607;DHT22;29197;44.788;10.366;2023-03-20T15:01:56;20.00;99.90
43607;DHT22;29197;44.788;10.366;2023-03-20T15:04:45;20.00;99.90
43607;DHT22;29197;44.788;10.366;2023-03-20T15:07:36;19.90;99.90
43607;DHT22;29197;44.788;10.366;2023-03-20T15:10:26;19.60;99.90
43607;DHT22;29197;44.788;10.366;2023-03-20T15:13:16;19.30;99.90
43607;DHT22;29197;44.788;10.366;2023-03-20T15:16:08;19.10;99.90
43607;DHT22;29197;44.788;10.366;2023-03-20T15:18:57;19.00;99.90
43607;DHT22;29197;44.788;10.366;2023-03-20T15:21:46;18.80;99.90
43607;DHT22;29197;44.788;10.366;2023-03-20T15:24:35;18.70;99.90
43607;DHT22;29197;44.788;10.366;2023-03-20T15:27:25;18.60;99.90
43607;DHT22;29197;44.788;10.366;2023-03-20T15:30:19;18.50;99.90
43607;DHT22;29197;44.788;10.366;2023-03-20T15:33:15;18.40;99.90
43607;DHT22;29197;44.788;10.366;2023-03-20T15:36:08;18.30;99.90
43607;DHT22;29197;44.788;10.366;2023-03-20T15:39:09;18.40;99.90
43607;DHT22;29197;44.788;10.366;2023-03-20T15:42:01;18.50;99.90
43607;DHT22;29197;44.788;10.366;2023-03-20T15:44:53;18.60;99.90
43607;DHT22;29197;44.788;10.366;2023-03-20T15:47:43;18.60;99.90
43607;DHT22;29197;44.788;10.366;2023-03-20T15:50:32;18.60;99.90
43607;DHT22;29197;44.788;10.366;2023-03-20T15:53:27;18.60;99.90
43607;DHT22;29197;44.788;10.366;2023-03-20T15:56:18;18.60;99.90
43607;DHT22;29197;44.788;10.366;2023-03-20T15:59:09;18.60;99.90
43607;DHT22;29197;44.788;10.366;2023-03-20T16:02:00;18.60;99.90
43607;DHT22;29197;44.788;10.366;2023-03-20T16:04:52;18.50;99.90
43607;DHT22;29197;44.788;10.366;2023-03-20T16:07:42;18.50;99.90
43607;DHT22;29197;44.788;10.366;2023-03-20T16:10:32;18.40;99.90
43607;DHT22;29197;44.788;10.366;2023-03-20T16:13:23;18.30;99.90
43607;DHT22;29197;44.788;10.366;2023-03-20T16:16:15;18.30;99.90
43607;DHT22;29197;44.788;10.366;2023-03-20T16:21:56;17.30;99.90
43607;DHT22;29197;44.788;10.366;2023-03-20T16:24:47;17.90;99.90
43607;DHT22;29197;44.788;10.366;2023-03-20T16:27:39;17.90;99.90
43607;DHT22;29197;44.788;10.366;2023-03-20T16:44:44;17.80;99.90
43607;DHT22;29197;44.788;10.366;2023-03-20T16:47:34;17.70;99.90
43607;DHT22;29197;44.788;10.366;2023-03-20T16:50:34;17.40;99.90
43607;DHT22;29197;44.788;10.366;2023-03-20T16:53:27;17.20;99.90
43607;DHT22;29197;44.788;10.366;2023-03-20T16:56:24;17.10;99.90
43607;DHT22;29197;44.788;10.366;2023-03-20T16:59:17;16.90;99.90
43607;DHT22;29197;44.788;10.366;2023-03-20T17:02:11;16.80;99.90
43607;DHT22;29197;44.788;10.366;2023-03-20T17:13:25;17.00;99.90
43607;DHT22;29197;44.788;10.366;2023-03-20T17:16:17;16.80;99.90
43607;DHT22;29197;44.788;10.366;2023-03-20T17:19:09;16.70;99.90
43607;DHT22;29197;44.788;10.366;2023-03-20T17:22:00;16.70;99.90
43607;DHT22;29197;44.788;10.366;2023-03-20T17:24:51;16.70;99.90
43607;DHT22;29197;44.788;10.366;2023-03-20T17:27:40;16.70;99.90
43607;DHT22;29197;44.788;10.366;2023-03-20T17:30:30;16.80;99.90
43607;DHT22;29197;44.788;10.366;2023-03-20T17:33:19;16.70;99.90
43607;DHT22;29197;44.788;10.366;2023-03-20T17:36:14;16.70;99.90
43607;DHT22;29197;44.788;10.366;2023-03-20T17:39:03;16.60;99.90
43607;DHT22;29197;44.788;10.366;2023-03-20T17:41:52;16.60;99.90
43607;DHT22;29197;44.788;10.366;2023-03-20T17:47:31;16.60;99.90
43607;DHT22;29197;44.788;10.366;2023-03-20T17:50:21;16.60;99.90
43607;DHT22;29197;44.788;10.366;2023-03-20T17:53:14;16.60;99.90
43607;DHT22;29197;44.788;10.366;2023-03-20T17:56:09;16.60;99.90
43607;DHT22;29197;44.788;10.366;2023-03-20T17:58:58;16.60;99.90
43607;DHT22;29197;44.788;10.366;2023-03-20T18:01:47;16.50;99.90
43607;DHT22;29197;44.788;10.366;2023-03-20T18:04:37;16.50;99.90
43607;DHT22;29197;44.788;10.366;2023-03-20T18:07:25;16.40;99.90
43607;DHT22;29197;44.788;10.366;2023-03-20T18:38:39;16.20;99.90
43607;DHT22;29197;44.788;10.366;2023-03-20T18:41:28;16.00;99.90
43607;DHT22;29197;44.788;10.366;2023-03-20T18:44:16;16.00;99.90
43607;DHT22;29197;44.788;10.366;2023-03-20T18:47:05;16.00;99.90
43607;DHT22;29197;44.788;10.366;2023-03-20T18:49:54;16.00;99.90
43607;DHT22;29197;44.788;10.366;2023-03-20T18:52:43;15.90;99.90
43607;DHT22;29197;44.788;10.366;2023-03-20T18:55:33;15.90;99.90
43607;DHT22;29197;44.788;10.366;2023-03-20T18:58:23;15.90;99.90
43607;DHT22;29197;44.788;10.366;2023-03-20T19:01:12;15.90;99.90
43607;DHT22;29197;44.788;10.366;2023-03-20T19:04:02;15.80;99.90
43607;DHT22;29197;44.788;10.366;2023-03-20T19:06:51;15.80;99.90
43607;DHT22;29197;44.788;10.366;2023-03-20T19:09:39;15.80;99.90